createdAt,value
2019-03-24T00:00:27.415Z,6.31
2019-03-24T00:01:27.517Z,6.3
2019-03-24T00:02:27.512Z,6.3
2019-03-24T00:03:27.411Z,6.38
2019-03-24T00:04:27.414Z,6.38
2019-03-24T00:05:27.464Z,6.34
2019-03-24T00:06:27.869Z,6.29
2019-03-24T00:07:27.637Z,6.33
2019-03-24T00:08:27.439Z,6.36
2019-03-24T00:09:27.407Z,6.35
2019-03-24T00:10:27.430Z,6.33
2019-03-24T00:11:27.407Z,6.31
2019-03-24T00:12:27.425Z,6.33
2019-03-24T00:13:27.380Z,6.32
2019-03-24T00:14:27.392Z,6.29
2019-03-24T00:15:27.391Z,6.27
2019-03-24T00:16:27.374Z,6.25
2019-03-24T00:17:27.397Z,6.25
2019-03-24T00:18:27.405Z,6.26
2019-03-24T00:19:27.453Z,6.24
2019-03-24T00:20:27.382Z,6.24
2019-03-24T00:21:27.380Z,6.27
2019-03-24T00:22:27.386Z,6.24
2019-03-24T00:23:27.369Z,6.28
2019-03-24T00:24:27.372Z,6.25
2019-03-24T00:25:27.410Z,6.25
2019-03-24T00:26:27.395Z,6.26
2019-03-24T00:27:27.345Z,6.26
2019-03-24T00:28:27.479Z,6.24
2019-03-24T00:29:27.455Z,6.24
2019-03-24T00:30:27.391Z,6.22
2019-03-24T00:31:27.413Z,6.22
2019-03-24T00:32:27.460Z,6.23
2019-03-24T00:33:27.412Z,6.22
2019-03-24T00:34:27.391Z,6.22
2019-03-24T00:35:27.356Z,6.24
2019-03-24T00:36:27.346Z,6.21
2019-03-24T00:37:27.370Z,6.21
2019-03-24T00:38:27.351Z,6.22
2019-03-24T00:39:27.350Z,6.2
2019-03-24T00:40:27.355Z,6.19
2019-03-24T00:41:27.344Z,6.15
2019-03-24T00:42:27.422Z,6.12
2019-03-24T00:43:27.355Z,6.18
2019-03-24T00:44:27.354Z,6.12
2019-03-24T00:45:37.521Z,6.2
2019-03-24T00:46:27.393Z,6.16
2019-03-24T00:47:27.368Z,6.14
2019-03-24T00:48:27.372Z,6.14
2019-03-24T00:49:27.359Z,6.16
2019-03-24T00:50:27.535Z,6.17
2019-03-24T00:51:27.417Z,6.12
2019-03-24T00:52:27.405Z,6.16
2019-03-24T00:53:27.329Z,6.15
2019-03-24T00:54:27.350Z,6.16
2019-03-24T00:55:27.383Z,6.15
2019-03-24T00:56:27.351Z,6.17
2019-03-24T00:57:27.316Z,6.15
2019-03-24T00:58:27.298Z,6.1
2019-03-24T00:59:29.402Z,6.16
2019-03-24T01:00:27.307Z,6.14
2019-03-24T01:01:27.390Z,6.09
2019-03-24T01:02:27.353Z,6.12
2019-03-24T01:03:27.438Z,6.12
2019-03-24T01:04:27.329Z,6.11
2019-03-24T01:05:27.330Z,6.1
2019-03-24T01:06:27.344Z,6.09
2019-03-24T01:07:27.346Z,6.11
2019-03-24T01:08:27.357Z,6.07
2019-03-24T01:09:27.342Z,6.12
2019-03-24T01:10:27.351Z,6.1
2019-03-24T01:11:27.349Z,6.09
2019-03-24T01:12:27.417Z,6.05
2019-03-24T01:13:27.304Z,6.08
2019-03-24T01:14:27.299Z,6.07
2019-03-24T01:15:27.283Z,6.07
2019-03-24T01:16:27.313Z,6
2019-03-24T01:17:27.345Z,6
2019-03-24T01:18:27.328Z,6.06
2019-03-24T01:19:27.333Z,6.07
2019-03-24T01:20:27.339Z,6.05
2019-03-24T01:21:27.313Z,6.03
2019-03-24T01:22:27.307Z,6.06
2019-03-24T01:23:27.302Z,6.03
2019-03-24T01:24:27.320Z,6.02
2019-03-24T01:25:27.286Z,6.03
2019-03-24T01:26:27.302Z,6.02
2019-03-24T01:27:27.329Z,6.04
2019-03-24T01:28:27.300Z,6.01
2019-03-24T01:29:27.324Z,5.98
2019-03-24T01:30:27.320Z,6
2019-03-24T01:31:27.306Z,6.03
2019-03-24T01:32:27.261Z,6.02
2019-03-24T01:33:27.534Z,6.02
2019-03-24T01:34:27.390Z,6.03
2019-03-24T01:35:27.272Z,6
2019-03-24T01:36:27.254Z,6
2019-03-24T01:37:27.242Z,5.99
2019-03-24T01:38:27.259Z,5.98
2019-03-24T01:39:27.334Z,6
2019-03-24T01:40:27.308Z,6.01
2019-03-24T01:41:27.269Z,6
2019-03-24T01:42:27.268Z,5.99
2019-03-24T01:43:27.345Z,5.98
2019-03-24T01:44:27.266Z,5.98
2019-03-24T01:45:27.247Z,5.97
2019-03-24T01:46:27.246Z,5.96
2019-03-24T01:47:27.261Z,5.96
2019-03-24T01:48:27.294Z,5.95
2019-03-24T01:49:27.273Z,5.92
2019-03-24T01:50:27.265Z,5.92
2019-03-24T01:51:27.272Z,5.91
2019-03-24T01:52:27.242Z,5.91
2019-03-24T01:53:27.276Z,5.88
2019-03-24T01:54:27.277Z,5.9
2019-03-24T01:55:27.548Z,5.85
2019-03-24T01:56:27.482Z,5.86
2019-03-24T01:57:27.266Z,5.87
2019-03-24T01:58:27.279Z,5.87
2019-03-24T01:59:27.292Z,5.85
2019-03-24T02:00:27.244Z,5.84
2019-03-24T02:01:27.257Z,5.86
2019-03-24T02:02:27.261Z,5.86
2019-03-24T02:03:27.213Z,5.86
2019-03-24T02:04:27.214Z,5.82
2019-03-24T02:05:27.283Z,5.87
2019-03-24T02:06:27.240Z,5.86
2019-03-24T02:07:27.216Z,5.86
2019-03-24T02:08:27.286Z,5.84
2019-03-24T02:09:27.258Z,5.85
2019-03-24T02:10:27.205Z,5.87
2019-03-24T02:11:27.286Z,5.85
2019-03-24T02:12:27.271Z,5.8
2019-03-24T02:13:27.199Z,5.86
2019-03-24T02:14:27.203Z,5.84
2019-03-24T02:15:27.225Z,5.83
2019-03-24T02:16:27.205Z,5.87
2019-03-24T02:17:27.384Z,5.87
2019-03-24T02:18:27.250Z,5.86
2019-03-24T02:19:27.236Z,5.83
2019-03-24T02:20:27.311Z,5.82
2019-03-24T02:21:27.215Z,5.85
2019-03-24T02:22:27.230Z,5.85
2019-03-24T02:23:27.219Z,5.8
2019-03-24T02:24:27.232Z,5.81
2019-03-24T02:25:27.198Z,5.82
2019-03-24T02:26:27.212Z,5.78
2019-03-24T02:27:27.205Z,5.82
2019-03-24T02:28:27.180Z,5.85
2019-03-24T02:29:27.195Z,5.81
2019-03-24T02:30:27.239Z,5.76
2019-03-24T02:31:27.186Z,5.77
2019-03-24T02:32:27.211Z,5.82
2019-03-24T02:33:27.241Z,5.86
2019-03-24T02:34:27.240Z,5.85
2019-03-24T02:35:27.190Z,5.84
2019-03-24T02:36:27.231Z,5.79
2019-03-24T02:37:27.183Z,5.78
2019-03-24T02:38:27.647Z,5.77
2019-03-24T02:39:27.235Z,5.79
2019-03-24T02:40:27.167Z,5.75
2019-03-24T02:41:27.351Z,5.79
2019-03-24T02:42:27.192Z,5.8
2019-03-24T02:43:27.163Z,5.78
2019-03-24T02:44:27.215Z,5.8
2019-03-24T02:45:27.176Z,5.78
2019-03-24T02:46:27.169Z,5.79
2019-03-24T02:47:27.200Z,5.79
2019-03-24T02:48:27.197Z,5.8
2019-03-24T02:49:27.136Z,5.8
2019-03-24T02:50:27.194Z,5.79
2019-03-24T02:51:27.177Z,5.8
2019-03-24T02:52:27.171Z,5.78
2019-03-24T02:53:27.182Z,5.78
2019-03-24T02:54:27.196Z,5.77
2019-03-24T02:55:27.159Z,5.74
2019-03-24T02:56:27.139Z,5.75
2019-03-24T02:57:27.225Z,5.75
2019-03-24T02:58:27.223Z,5.74
2019-03-24T02:59:27.290Z,5.74
2019-03-24T03:00:27.625Z,5.72
2019-03-24T03:01:27.254Z,5.71
2019-03-24T03:02:27.218Z,5.71
2019-03-24T03:03:27.152Z,5.69
2019-03-24T03:04:27.191Z,5.69
2019-03-24T03:05:27.229Z,5.69
2019-03-24T03:06:27.154Z,5.68
2019-03-24T03:07:27.208Z,5.66
2019-03-24T03:08:27.158Z,5.65
2019-03-24T03:09:27.227Z,5.65
2019-03-24T03:10:27.177Z,5.61
2019-03-24T03:11:27.186Z,5.63
2019-03-24T03:12:27.179Z,5.61
2019-03-24T03:13:27.127Z,5.61
2019-03-24T03:14:27.201Z,5.61
2019-03-24T03:15:27.189Z,5.61
2019-03-24T03:16:39.602Z,5.57
2019-03-24T03:17:27.161Z,5.62
2019-03-24T03:18:27.139Z,5.59
2019-03-24T03:19:27.176Z,5.62
2019-03-24T03:20:28.051Z,5.58
2019-03-24T03:21:27.137Z,5.58
2019-03-24T03:22:27.299Z,5.59
2019-03-24T03:23:27.159Z,5.6
2019-03-24T03:24:27.221Z,5.59
2019-03-24T03:25:27.136Z,5.6
2019-03-24T03:26:27.130Z,5.57
2019-03-24T03:27:27.143Z,5.59
2019-03-24T03:28:27.148Z,5.59
2019-03-24T03:29:27.128Z,5.58
2019-03-24T03:30:27.162Z,5.59
2019-03-24T03:31:27.494Z,5.59
2019-03-24T03:32:27.190Z,5.59
2019-03-24T03:33:27.200Z,5.6
2019-03-24T03:34:27.296Z,5.61
2019-03-24T03:35:27.220Z,5.6
2019-03-24T03:36:27.257Z,5.58
2019-03-24T03:37:27.157Z,5.6
2019-03-24T03:38:27.157Z,5.59
2019-03-24T03:39:27.127Z,5.58
2019-03-24T03:40:27.190Z,5.55
2019-03-24T03:41:27.143Z,5.59
2019-03-24T03:42:27.140Z,5.56
2019-03-24T03:43:27.113Z,5.55
2019-03-24T03:44:27.300Z,5.56
2019-03-24T03:45:27.178Z,5.57
2019-03-24T03:46:27.200Z,5.53
2019-03-24T03:47:27.173Z,5.56
2019-03-24T03:48:27.160Z,5.56
2019-03-24T03:49:27.101Z,5.58
2019-03-24T03:50:27.154Z,5.56
2019-03-24T03:51:27.099Z,5.55
2019-03-24T03:52:27.131Z,5.51
2019-03-24T03:53:27.083Z,5.55
2019-03-24T03:54:27.092Z,5.55
2019-03-24T03:55:27.074Z,5.54
2019-03-24T03:56:27.095Z,5.56
2019-03-24T03:57:27.100Z,5.56
2019-03-24T03:58:27.079Z,5.55
2019-03-24T03:59:27.151Z,5.55
2019-03-24T04:00:27.066Z,5.56
2019-03-24T04:01:27.130Z,5.53
2019-03-24T04:02:27.111Z,5.52
2019-03-24T04:03:27.090Z,5.55
2019-03-24T04:04:27.292Z,5.55
2019-03-24T04:05:27.054Z,5.54
2019-03-24T04:06:27.091Z,5.51
2019-03-24T04:07:27.086Z,5.48
2019-03-24T04:08:27.068Z,5.45
2019-03-24T04:09:27.133Z,5.45
2019-03-24T04:10:27.065Z,5.43
2019-03-24T04:11:27.078Z,5.41
2019-03-24T04:12:27.214Z,5.39
2019-03-24T04:13:27.071Z,5.39
2019-03-24T04:14:27.056Z,5.4
2019-03-24T04:15:27.116Z,5.38
2019-03-24T04:16:27.132Z,5.37
2019-03-24T04:17:27.049Z,5.41
2019-03-24T04:18:27.066Z,5.39
2019-03-24T04:19:27.073Z,5.38
2019-03-24T04:20:27.098Z,5.38
2019-03-24T04:21:27.076Z,5.35
2019-03-24T04:22:27.081Z,5.38
2019-03-24T04:23:27.035Z,5.37
2019-03-24T04:24:27.052Z,5.35
2019-03-24T04:25:27.339Z,5.35
2019-03-24T04:26:27.353Z,5.37
2019-03-24T04:27:27.053Z,5.37
2019-03-24T04:28:27.087Z,5.37
2019-03-24T04:29:27.083Z,5.36
2019-03-24T04:30:27.066Z,5.36
2019-03-24T04:31:27.073Z,5.34
2019-03-24T04:32:27.057Z,5.33
2019-03-24T04:33:27.074Z,5.32
2019-03-24T04:34:27.102Z,5.32
2019-03-24T04:35:27.124Z,5.31
2019-03-24T04:36:27.047Z,5.29
2019-03-24T04:37:27.039Z,5.29
2019-03-24T04:38:27.095Z,5.32
2019-03-24T04:39:27.063Z,5.35
2019-03-24T04:40:27.029Z,5.36
2019-03-24T04:41:27.043Z,5.37
2019-03-24T04:42:27.055Z,5.33
2019-03-24T04:43:27.049Z,5.36
2019-03-24T04:44:27.035Z,5.38
2019-03-24T04:45:27.019Z,5.33
2019-03-24T04:46:27.050Z,5.33
2019-03-24T04:47:27.059Z,5.32
2019-03-24T04:48:27.012Z,5.31
2019-03-24T04:49:27.031Z,5.33
2019-03-24T04:50:27.079Z,5.36
2019-03-24T04:51:26.984Z,5.33
2019-03-24T04:52:27.009Z,5.33
2019-03-24T04:53:27.053Z,5.32
2019-03-24T04:54:27.037Z,5.31
2019-03-24T04:55:27.065Z,5.29
2019-03-24T04:56:26.982Z,5.28
2019-03-24T04:57:27.069Z,5.29
2019-03-24T04:58:27.019Z,5.29
2019-03-24T04:59:26.993Z,5.27
2019-03-24T05:00:27.025Z,5.25
2019-03-24T05:01:26.982Z,5.26
2019-03-24T05:02:27.041Z,5.22
2019-03-24T05:03:26.978Z,5.24
2019-03-24T05:04:26.978Z,5.23
2019-03-24T05:05:26.982Z,5.25
2019-03-24T05:06:27.290Z,5.25
2019-03-24T05:07:26.972Z,5.25
2019-03-24T05:08:27.310Z,5.31
2019-03-24T05:09:27.010Z,5.34
2019-03-24T05:10:27.051Z,5.3
2019-03-24T05:11:26.988Z,5.29
2019-03-24T05:12:27.043Z,5.3
2019-03-24T05:13:26.951Z,5.31
2019-03-24T05:14:26.995Z,5.3
2019-03-24T05:15:27.004Z,5.31
2019-03-24T05:16:26.965Z,5.3
2019-03-24T05:17:27.704Z,5.32
2019-03-24T05:18:26.977Z,5.29
2019-03-24T05:19:26.979Z,5.29
2019-03-24T05:20:26.960Z,5.27
2019-03-24T05:21:26.996Z,5.28
2019-03-24T05:22:27.017Z,5.28
2019-03-24T05:23:26.984Z,5.28
2019-03-24T05:24:27.021Z,5.26
2019-03-24T05:25:27.078Z,5.26
2019-03-24T05:26:27.006Z,5.26
2019-03-24T05:27:26.959Z,5.26
2019-03-24T05:28:26.993Z,5.24
2019-03-24T05:29:26.969Z,5.24
2019-03-24T05:30:26.996Z,5.22
2019-03-24T05:31:26.959Z,5.24
2019-03-24T05:32:26.926Z,5.23
2019-03-24T05:33:26.915Z,5.23
2019-03-24T05:34:27.469Z,5.2
2019-03-24T05:35:27.001Z,5.2
2019-03-24T05:36:26.943Z,5.19
2019-03-24T05:37:26.971Z,5.18
2019-03-24T05:38:26.933Z,5.21
2019-03-24T05:39:26.963Z,5.23
2019-03-24T05:40:26.947Z,5.21
2019-03-24T05:41:26.956Z,5.23
2019-03-24T05:42:26.928Z,5.25
2019-03-24T05:43:26.933Z,5.25
2019-03-24T05:44:26.922Z,5.24
2019-03-24T05:45:26.916Z,5.24
2019-03-24T05:46:26.969Z,5.23
2019-03-24T05:47:37.754Z,5.21
2019-03-24T05:48:26.935Z,5.19
2019-03-24T05:49:26.926Z,5.26
2019-03-24T05:50:26.923Z,5.31
2019-03-24T05:51:27.006Z,5.3
2019-03-24T05:52:27.905Z,5.3
2019-03-24T05:53:26.925Z,5.29
2019-03-24T05:54:26.912Z,5.28
2019-03-24T05:55:26.939Z,5.28
2019-03-24T05:56:26.893Z,5.28
2019-03-24T05:57:26.900Z,5.3
2019-03-24T05:58:26.926Z,5.29
2019-03-24T05:59:26.888Z,5.31
2019-03-24T06:00:26.896Z,5.29
2019-03-24T06:01:26.884Z,5.27
2019-03-24T06:02:26.943Z,5.28
2019-03-24T06:03:26.964Z,5.31
2019-03-24T06:04:26.931Z,5.32
2019-03-24T06:05:26.904Z,5.32
2019-03-24T06:06:26.909Z,5.33
2019-03-24T06:07:26.856Z,5.33
2019-03-24T06:08:26.871Z,5.35
2019-03-24T06:09:26.914Z,5.34
2019-03-24T06:10:26.875Z,5.33
2019-03-24T06:11:26.878Z,5.33
2019-03-24T06:12:26.848Z,5.35
2019-03-24T06:13:27.139Z,5.34
2019-03-24T06:14:27.625Z,5.35
2019-03-24T06:15:26.879Z,5.35
2019-03-24T06:16:26.921Z,5.35
2019-03-24T06:17:26.928Z,5.35
2019-03-24T06:18:26.842Z,5.36
2019-03-24T06:19:26.906Z,5.3
2019-03-24T06:20:26.912Z,5.29
2019-03-24T06:21:26.882Z,5.31
2019-03-24T06:22:26.839Z,5.31
2019-03-24T06:23:26.848Z,5.34
2019-03-24T06:24:26.854Z,5.34
2019-03-24T06:25:26.919Z,5.39
2019-03-24T06:26:26.856Z,5.43
2019-03-24T06:27:26.894Z,5.4
2019-03-24T06:28:26.883Z,5.43
2019-03-24T06:29:26.827Z,5.48
2019-03-24T06:30:26.837Z,5.51
2019-03-24T06:31:26.875Z,5.46
2019-03-24T06:32:26.837Z,5.44
2019-03-24T06:33:26.893Z,5.46
2019-03-24T06:34:26.880Z,5.49
2019-03-24T06:35:27.161Z,5.44
2019-03-24T06:36:26.884Z,5.46
2019-03-24T06:37:26.837Z,5.46
2019-03-24T06:38:26.844Z,5.48
2019-03-24T06:39:26.827Z,5.47
2019-03-24T06:40:26.879Z,5.53
2019-03-24T06:41:26.838Z,5.58
2019-03-24T06:42:26.816Z,5.63
2019-03-24T06:43:26.819Z,5.63
2019-03-24T06:44:26.854Z,5.62
2019-03-24T06:45:29.258Z,5.57
2019-03-24T06:46:26.868Z,5.66
2019-03-24T06:47:26.808Z,5.71
2019-03-24T06:48:26.852Z,5.66
2019-03-24T06:49:26.813Z,5.64
2019-03-24T06:50:26.850Z,5.75
2019-03-24T06:51:26.796Z,5.75
2019-03-24T06:52:26.832Z,5.73
2019-03-24T06:53:26.794Z,5.71
2019-03-24T06:54:26.791Z,5.72
2019-03-24T06:55:26.802Z,5.68
2019-03-24T06:56:26.884Z,5.82
2019-03-24T06:57:26.886Z,5.75
2019-03-24T06:58:26.786Z,5.76
2019-03-24T06:59:26.831Z,5.8
2019-03-24T07:00:26.856Z,5.79
2019-03-24T07:01:26.830Z,5.76
2019-03-24T07:02:26.789Z,5.78
2019-03-24T07:03:26.807Z,5.78
2019-03-24T07:04:26.848Z,5.74
2019-03-24T07:05:26.870Z,5.75
2019-03-24T07:06:26.804Z,5.79
2019-03-24T07:07:26.808Z,5.84
2019-03-24T07:08:26.807Z,5.85
2019-03-24T07:09:26.868Z,5.79
2019-03-24T07:10:26.817Z,5.79
2019-03-24T07:11:26.787Z,5.84
2019-03-24T07:12:26.788Z,5.85
2019-03-24T07:13:26.796Z,5.85
2019-03-24T07:14:26.765Z,5.84
2019-03-24T07:15:26.779Z,5.87
2019-03-24T07:16:26.782Z,5.83
2019-03-24T07:17:26.773Z,5.95
2019-03-24T07:18:26.823Z,5.98
2019-03-24T07:19:26.798Z,6.05
2019-03-24T07:20:26.812Z,6.09
2019-03-24T07:21:26.855Z,6.11
2019-03-24T07:22:26.756Z,6.11
2019-03-24T07:23:26.765Z,6.16
2019-03-24T07:24:26.812Z,6.17
2019-03-24T07:25:26.793Z,6.21
2019-03-24T07:26:26.787Z,6.22
2019-03-24T07:27:26.833Z,6.17
2019-03-24T07:28:26.776Z,6.23
2019-03-24T07:29:26.763Z,6.26
2019-03-24T07:30:26.749Z,6.28
2019-03-24T07:31:26.807Z,6.3
2019-03-24T07:32:26.805Z,6.32
2019-03-24T07:33:26.741Z,6.34
2019-03-24T07:34:26.767Z,6.37
2019-03-24T07:35:26.729Z,6.36
2019-03-24T07:36:26.895Z,6.37
2019-03-24T07:37:26.730Z,6.38
2019-03-24T07:38:26.805Z,6.39
2019-03-24T07:39:26.741Z,6.39
2019-03-24T07:40:28.583Z,6.38
2019-03-24T07:41:26.809Z,6.39
2019-03-24T07:42:26.739Z,6.38
2019-03-24T07:43:26.727Z,6.39
2019-03-24T07:44:26.746Z,6.38
2019-03-24T07:45:26.727Z,6.36
2019-03-24T07:46:26.726Z,6.39
2019-03-24T07:47:26.777Z,6.38
2019-03-24T07:48:26.820Z,6.37
2019-03-24T07:49:26.744Z,6.38
2019-03-24T07:50:26.757Z,6.4
2019-03-24T07:51:26.712Z,6.39
2019-03-24T07:52:26.722Z,6.33
2019-03-24T07:53:26.739Z,6.39
2019-03-24T07:54:26.770Z,6.39
2019-03-24T07:55:26.739Z,6.33
2019-03-24T07:56:26.720Z,6.38
2019-03-24T07:57:26.726Z,6.39
2019-03-24T07:58:26.703Z,6.39
2019-03-24T07:59:26.704Z,6.37
2019-03-24T08:00:26.775Z,6.43
2019-03-24T08:01:26.735Z,6.45
2019-03-24T08:02:26.748Z,6.44
2019-03-24T08:03:26.738Z,6.45
2019-03-24T08:04:26.728Z,6.43
2019-03-24T08:05:26.734Z,6.41
2019-03-24T08:06:26.746Z,6.46
2019-03-24T08:07:26.731Z,6.46
2019-03-24T08:08:26.802Z,6.5
2019-03-24T08:09:26.670Z,6.49
2019-03-24T08:10:26.806Z,6.49
2019-03-24T08:11:26.692Z,6.48
2019-03-24T08:12:26.694Z,6.48
2019-03-24T08:13:26.730Z,6.51
2019-03-24T08:14:26.714Z,6.5
2019-03-24T08:15:26.791Z,6.51
2019-03-24T08:16:26.717Z,6.52
2019-03-24T08:17:26.694Z,6.56
2019-03-24T08:18:30.568Z,6.53
2019-03-24T08:19:26.702Z,6.53
2019-03-24T08:20:26.706Z,6.55
2019-03-24T08:21:26.737Z,6.51
2019-03-24T08:22:26.681Z,6.59
2019-03-24T08:23:26.827Z,6.56
2019-03-24T08:24:26.703Z,6.59
2019-03-24T08:25:26.659Z,6.57
2019-03-24T08:26:26.691Z,6.6
2019-03-24T08:27:26.659Z,6.63
2019-03-24T08:28:26.930Z,6.6
2019-03-24T08:29:26.676Z,6.6
2019-03-24T08:30:29.048Z,6.63
2019-03-24T08:31:26.664Z,6.62
2019-03-24T08:32:26.685Z,6.64
2019-03-24T08:33:26.757Z,6.66
2019-03-24T08:34:26.815Z,6.64
2019-03-24T08:35:26.725Z,6.67
2019-03-24T08:36:26.672Z,6.67
2019-03-24T08:37:26.716Z,6.71
2019-03-24T08:38:29.611Z,6.74
2019-03-24T08:39:26.725Z,6.72
2019-03-24T08:40:26.828Z,6.73
2019-03-24T08:41:26.643Z,6.73
2019-03-24T08:42:26.678Z,6.71
2019-03-24T08:43:26.669Z,6.72
2019-03-24T08:44:26.677Z,6.71
2019-03-24T08:45:26.736Z,6.73
2019-03-24T08:46:26.644Z,6.77
2019-03-24T08:47:26.712Z,6.72
2019-03-24T08:48:26.616Z,6.73
2019-03-24T08:49:26.638Z,6.77
2019-03-24T08:50:26.639Z,6.74
2019-03-24T08:51:26.626Z,6.71
2019-03-24T08:52:26.682Z,6.68
2019-03-24T08:53:26.695Z,6.7
2019-03-24T08:54:26.687Z,6.75
2019-03-24T08:55:26.705Z,6.73
2019-03-24T08:56:26.683Z,6.75
2019-03-24T08:57:26.667Z,6.78
2019-03-24T08:58:26.662Z,6.79
2019-03-24T08:59:27.644Z,6.8
2019-03-24T09:00:31.342Z,6.8
2019-03-24T09:01:26.612Z,6.78
2019-03-24T09:02:26.626Z,6.82
2019-03-24T09:03:26.652Z,6.79
2019-03-24T09:04:26.632Z,6.8
2019-03-24T09:05:26.634Z,6.83
2019-03-24T09:06:26.612Z,6.84
2019-03-24T09:07:26.781Z,6.84
2019-03-24T09:08:26.613Z,6.84
2019-03-24T09:09:26.619Z,6.83
2019-03-24T09:10:26.646Z,6.85
2019-03-24T09:11:31.971Z,6.85
2019-03-24T09:12:31.512Z,6.9
2019-03-24T09:13:26.651Z,6.92
2019-03-24T09:14:26.606Z,6.93
2019-03-24T09:15:26.680Z,6.87
2019-03-24T09:16:26.742Z,6.85
2019-03-24T09:17:26.789Z,6.91
2019-03-24T09:18:26.650Z,6.92
2019-03-24T09:19:26.605Z,6.94
2019-03-24T09:20:26.622Z,6.93
2019-03-24T09:21:26.672Z,6.95
2019-03-24T09:22:26.628Z,7.03
2019-03-24T09:23:26.637Z,6.94
2019-03-24T09:24:26.633Z,6.97
2019-03-24T09:25:27.075Z,7.05
2019-03-24T09:26:26.639Z,7.02
2019-03-24T09:27:26.691Z,6.97
2019-03-24T09:28:26.645Z,6.99
2019-03-24T09:29:26.880Z,6.99
2019-03-24T09:30:26.774Z,6.95
2019-03-24T09:31:26.621Z,6.95
2019-03-24T09:32:26.700Z,7.02
2019-03-24T09:33:26.595Z,7.05
2019-03-24T09:34:26.611Z,7.02
2019-03-24T09:35:26.597Z,6.98
2019-03-24T09:36:26.757Z,6.98
2019-03-24T09:37:26.646Z,6.95
2019-03-24T09:38:26.635Z,6.93
2019-03-24T09:39:26.695Z,7
2019-03-24T09:40:26.575Z,7.04
2019-03-24T09:41:26.656Z,7.03
2019-03-24T09:42:26.617Z,7.01
2019-03-24T09:43:26.586Z,7.01
2019-03-24T09:44:26.621Z,7.06
2019-03-24T09:45:26.627Z,7.03
2019-03-24T09:46:26.648Z,6.97
2019-03-24T09:47:26.582Z,7.07
2019-03-24T09:48:26.659Z,7.04
2019-03-24T09:49:26.561Z,7.08
2019-03-24T09:50:26.796Z,7.15
2019-03-24T09:51:26.668Z,7.07
2019-03-24T09:52:26.555Z,7.07
2019-03-24T09:53:26.583Z,7.13
2019-03-24T09:54:26.577Z,7.19
2019-03-24T09:55:26.534Z,7.18
2019-03-24T09:56:27.571Z,7.19
2019-03-24T09:57:26.546Z,7.14
2019-03-24T09:58:26.545Z,7.15
2019-03-24T09:59:26.604Z,7.08
2019-03-24T10:00:26.577Z,7.1
2019-03-24T10:01:26.714Z,7.14
2019-03-24T10:02:26.569Z,7.14
2019-03-24T10:03:26.539Z,7.1
2019-03-24T10:04:27.516Z,7.16
2019-03-24T10:05:26.563Z,7.2
2019-03-24T10:06:26.565Z,7.24
2019-03-24T10:07:26.595Z,7.24
2019-03-24T10:08:26.549Z,7.17
2019-03-24T10:09:26.567Z,7.19
2019-03-24T10:10:26.687Z,7.21
2019-03-24T10:11:26.644Z,7.2
2019-03-24T10:12:26.578Z,7.19
2019-03-24T10:13:26.598Z,7.15
2019-03-24T10:14:26.597Z,7.19
2019-03-24T10:15:26.527Z,7.13
2019-03-24T10:16:26.579Z,7.18
2019-03-24T10:17:26.687Z,7.21
2019-03-24T10:18:27.721Z,7.23
2019-03-24T10:19:26.654Z,7.2
2019-03-24T10:20:26.598Z,7.25
2019-03-24T10:21:26.512Z,7.17
2019-03-24T10:22:26.489Z,7.23
2019-03-24T10:23:26.607Z,7.19
2019-03-24T10:24:26.479Z,7.17
2019-03-24T10:25:26.587Z,7.22
2019-03-24T10:26:27.122Z,7.2
2019-03-24T10:27:26.520Z,7.15
2019-03-24T10:28:26.483Z,7.2
2019-03-24T10:29:26.528Z,7.17
2019-03-24T10:30:26.571Z,7.17
2019-03-24T10:31:26.496Z,7.26
2019-03-24T10:32:26.533Z,7.28
2019-03-24T10:33:26.494Z,7.28
2019-03-24T10:34:26.576Z,7.27
2019-03-24T10:35:26.592Z,7.23
2019-03-24T10:36:27.619Z,7.26
2019-03-24T10:37:26.483Z,7.34
2019-03-24T10:38:26.510Z,7.33
2019-03-24T10:39:26.514Z,7.19
2019-03-24T10:40:29.369Z,7.14
2019-03-24T10:41:26.571Z,7.07
2019-03-24T10:42:26.602Z,7.07
2019-03-24T10:43:26.475Z,7.1
2019-03-24T10:44:26.590Z,7.17
2019-03-24T10:45:26.470Z,7.11
2019-03-24T10:46:26.474Z,7.16
2019-03-24T10:47:26.483Z,7.12
2019-03-24T10:48:34.148Z,7.16
2019-03-24T10:49:26.546Z,7.2
2019-03-24T10:50:26.526Z,7.19
2019-03-24T10:51:26.542Z,7.21
2019-03-24T10:52:26.486Z,7.24
2019-03-24T10:53:26.543Z,7.26
2019-03-24T10:54:26.731Z,7.3
2019-03-24T10:55:26.482Z,7.31
2019-03-24T10:56:26.495Z,7.15
2019-03-24T10:57:26.463Z,7.19
2019-03-24T10:58:26.702Z,7.22
2019-03-24T10:59:26.448Z,7.17
2019-03-24T11:00:26.501Z,7.19
2019-03-24T11:01:26.488Z,7.22
2019-03-24T11:02:26.477Z,7.23
2019-03-24T11:03:26.502Z,7.24
2019-03-24T11:04:26.589Z,7.28
2019-03-24T11:05:26.454Z,7.23
2019-03-24T11:06:26.588Z,7.25
2019-03-24T11:07:26.465Z,7.32
2019-03-24T11:08:26.567Z,7.26
2019-03-24T11:09:26.526Z,7.23
2019-03-24T11:10:26.624Z,7.24
2019-03-24T11:11:26.570Z,7.23
2019-03-24T11:12:26.643Z,7.25
2019-03-24T11:13:26.657Z,7.31
2019-03-24T11:14:26.479Z,7.32
2019-03-24T11:15:27.482Z,7.23
2019-03-24T11:16:26.438Z,7.09
2019-03-24T11:17:26.453Z,6.99
2019-03-24T11:18:26.426Z,7.11
2019-03-24T11:19:36.381Z,7.11
2019-03-24T11:20:26.420Z,7.1
2019-03-24T11:21:26.786Z,7.05
2019-03-24T11:22:26.434Z,7.16
2019-03-24T11:23:26.468Z,7.03
2019-03-24T11:24:26.422Z,7.05
2019-03-24T11:25:26.444Z,7.02
2019-03-24T11:26:26.509Z,7.05
2019-03-24T11:27:26.414Z,7.02
2019-03-24T11:28:26.427Z,7.06
2019-03-24T11:29:26.415Z,7.14
2019-03-24T11:30:26.506Z,7.06
2019-03-24T11:31:26.452Z,7.14
2019-03-24T11:32:26.389Z,7.13
2019-03-24T11:33:26.420Z,7.14
2019-03-24T11:34:26.534Z,7.14
2019-03-24T11:35:27.295Z,7.26
2019-03-24T11:36:26.449Z,7.28
2019-03-24T11:37:28.398Z,7.24
2019-03-24T11:38:26.503Z,7.28
2019-03-24T11:39:27.674Z,7.21
2019-03-24T11:40:26.516Z,7.17
2019-03-24T11:41:26.551Z,7.19
2019-03-24T11:42:26.429Z,7.27
2019-03-24T11:43:26.468Z,7.3
2019-03-24T11:44:26.442Z,7.15
2019-03-24T11:45:26.438Z,7.23
2019-03-24T11:46:26.415Z,7.19
2019-03-24T11:47:27.337Z,7.23
2019-03-24T11:48:26.475Z,7.11
2019-03-24T11:49:26.457Z,7.17
2019-03-24T11:50:26.461Z,7.24
2019-03-24T11:51:26.399Z,7.1
2019-03-24T11:52:26.430Z,7.16
2019-03-24T11:53:26.414Z,7.18
2019-03-24T11:54:26.419Z,7.22
2019-03-24T11:55:26.445Z,7.24
2019-03-24T11:56:26.374Z,7.21
2019-03-24T11:57:26.537Z,7.28
2019-03-24T11:58:26.572Z,7.2
2019-03-24T11:59:26.396Z,7.17
2019-03-24T12:00:27.498Z,7.24
2019-03-24T12:01:26.489Z,7.32
2019-03-24T12:02:26.439Z,7.32
2019-03-24T12:03:26.395Z,7.41
2019-03-24T12:04:26.407Z,7.37
2019-03-24T12:05:26.415Z,7.26
2019-03-24T12:06:26.446Z,7.27
2019-03-24T12:07:26.364Z,7.34
2019-03-24T12:08:26.385Z,7.35
2019-03-24T12:09:26.395Z,7.27
2019-03-24T12:10:26.406Z,7.34
2019-03-24T12:11:26.362Z,7.32
2019-03-24T12:12:26.411Z,7.29
2019-03-24T12:13:26.417Z,7.24
2019-03-24T12:14:26.381Z,7.28
2019-03-24T12:15:26.380Z,7.32
2019-03-24T12:16:26.387Z,7.37
2019-03-24T12:17:26.440Z,7.35
2019-03-24T12:18:27.503Z,7.37
2019-03-24T12:19:26.707Z,7.34
2019-03-24T12:20:26.802Z,7.29
2019-03-24T12:21:26.376Z,7.33
2019-03-24T12:22:26.358Z,7.23
2019-03-24T12:23:26.353Z,7.27
2019-03-24T12:24:26.442Z,7.38
2019-03-24T12:25:28.726Z,7.37
2019-03-24T12:26:26.397Z,7.36
2019-03-24T12:27:26.394Z,7.41
2019-03-24T12:28:26.376Z,7.47
2019-03-24T12:29:26.379Z,7.43
2019-03-24T12:30:26.362Z,7.44
2019-03-24T12:31:26.391Z,7.4
2019-03-24T12:32:26.408Z,7.43
2019-03-24T12:33:26.568Z,7.47
2019-03-24T12:34:26.405Z,7.5
2019-03-24T12:35:26.466Z,7.48
2019-03-24T12:36:26.444Z,7.39
2019-03-24T12:37:26.420Z,7.38
2019-03-24T12:38:26.349Z,7.41
2019-03-24T12:39:26.386Z,7.42
2019-03-24T12:40:27.337Z,7.45
2019-03-24T12:41:26.456Z,7.51
2019-03-24T12:42:26.586Z,7.41
2019-03-24T12:43:26.355Z,7.48
2019-03-24T12:44:26.469Z,7.44
2019-03-24T12:45:26.396Z,7.41
2019-03-24T12:46:27.489Z,7.48
2019-03-24T12:47:27.314Z,7.44
2019-03-24T12:48:26.804Z,7.49
2019-03-24T12:49:27.534Z,7.53
2019-03-24T12:50:32.122Z,7.49
2019-03-24T12:51:27.763Z,7.43
2019-03-24T12:52:26.391Z,7.47
2019-03-24T12:53:26.293Z,7.47
2019-03-24T12:54:26.332Z,7.47
2019-03-24T12:55:26.367Z,7.52
2019-03-24T12:56:26.417Z,7.47
2019-03-24T12:57:26.340Z,7.44
2019-03-24T12:58:27.235Z,7.49
2019-03-24T12:59:26.321Z,7.52
2019-03-24T13:00:26.375Z,7.56
2019-03-24T13:01:27.299Z,7.52
2019-03-24T13:02:26.330Z,7.49
2019-03-24T13:03:26.382Z,7.52
2019-03-24T13:04:26.330Z,7.57
2019-03-24T13:05:26.395Z,7.5
2019-03-24T13:06:26.301Z,7.5
2019-03-24T13:07:26.349Z,7.52
2019-03-24T13:08:26.301Z,7.54
2019-03-24T13:09:26.304Z,7.52
2019-03-24T13:10:26.414Z,7.5
2019-03-24T13:11:26.343Z,7.5
2019-03-24T13:12:26.287Z,7.48
2019-03-24T13:13:26.398Z,7.53
2019-03-24T13:14:26.361Z,7.46
2019-03-24T13:15:26.298Z,7.49
2019-03-24T13:16:26.356Z,7.41
2019-03-24T13:17:26.373Z,7.5
2019-03-24T13:18:26.287Z,7.54
2019-03-24T13:19:26.425Z,7.47
2019-03-24T13:20:39.168Z,7.58
2019-03-24T13:21:26.306Z,7.59